createdAt,value
2023-01-04T00:02:59.341Z,78.90
2023-01-04T00:06:23.316Z,78.80
2023-01-04T00:09:49.326Z,78.60
2023-01-04T00:13:13.001Z,78.20
2023-01-04T00:16:37.788Z,78.10
2023-01-04T00:20:03.628Z,77.90
2023-01-04T00:23:29.669Z,77.80
2023-01-04T00:26:53.180Z,77.80
2023-01-04T00:30:17.349Z,77.60
2023-01-04T00:33:40.922Z,77.60
2023-01-04T00:37:06.639Z,77.40
2023-01-04T00:40:30.333Z,77.30
2023-01-04T00:43:56.558Z,77.30
2023-01-04T00:47:20.165Z,77.40
2023-01-04T00:50:45.336Z,77.30
2023-01-04T00:54:14.528Z,77.30
2023-01-04T00:57:38.183Z,77.20
2023-01-04T01:01:06.521Z,77.30
2023-01-04T01:04:31.405Z,77.30
2023-01-04T01:07:55.494Z,77.30
2023-01-04T01:11:22.113Z,77.20
2023-01-04T01:14:45.775Z,77.10
2023-01-04T01:18:09.375Z,77.10
2023-01-04T01:21:33.427Z,77.10
2023-01-04T01:25:00.145Z,77.00
2023-01-04T01:28:25.743Z,77.00
2023-01-04T01:31:51.758Z,76.90
2023-01-04T01:35:16.427Z,76.70
2023-01-04T01:38:40.811Z,76.80
2023-01-04T01:42:10.492Z,76.50
2023-01-04T01:45:36.206Z,76.20
2023-01-04T01:49:04.182Z,76.20
2023-01-04T01:52:36.015Z,76.20
2023-01-04T01:56:02.069Z,76.00
2023-01-04T01:59:28.302Z,75.90
2023-01-04T02:03:03.932Z,75.80
2023-01-04T02:06:32.572Z,75.60
2023-01-04T02:09:57.167Z,75.30
2023-01-04T02:13:45.997Z,75.70
2023-01-04T02:17:16.137Z,76.40
2023-01-04T02:20:49.217Z,77.00
2023-01-04T02:24:33.764Z,77.90
2023-01-04T02:28:00.479Z,78.90
2023-01-04T02:31:41.327Z,79.70
2023-01-04T02:35:15.902Z,80.30
2023-01-04T02:38:55.662Z,81.80
2023-01-04T02:42:46.708Z,82.70
2023-01-04T02:46:17.134Z,83.40
2023-01-04T02:50:04.699Z,84.60
2023-01-04T02:53:36.824Z,85.30
2023-01-04T02:57:25.549Z,86.50
2023-01-04T03:01:25.830Z,86.80
2023-01-04T03:05:18.716Z,87.50
2023-01-04T03:08:50.463Z,88.10
2023-01-04T03:12:32.917Z,88.50
2023-01-04T03:16:02.545Z,88.90
2023-01-04T03:19:42.721Z,89.60
2023-01-04T03:23:25.735Z,90.10
2023-01-04T03:27:22.496Z,90.30
2023-01-04T03:31:10.831Z,90.50
2023-01-04T03:34:52.810Z,90.70
2023-01-04T03:38:45.764Z,90.90
2023-01-04T03:42:35.772Z,91.00
2023-01-04T03:46:23.802Z,91.00
2023-01-04T03:49:51.263Z,91.30
2023-01-04T03:53:17.359Z,91.30
2023-01-04T03:56:44.641Z,91.30
2023-01-04T04:00:14.826Z,91.30
2023-01-04T04:03:58.004Z,91.40
2023-01-04T04:07:39.911Z,91.50
2023-01-04T04:11:19.803Z,92.00
2023-01-04T04:14:45.806Z,91.70
2023-01-04T04:18:09.975Z,91.80
2023-01-04T04:21:33.676Z,91.90
2023-01-04T04:24:59.719Z,91.70
2023-01-04T04:28:27.313Z,91.70
2023-01-04T04:31:54.024Z,91.70
2023-01-04T04:35:18.898Z,91.50
2023-01-04T04:38:42.651Z,91.60
2023-01-04T04:42:06.609Z,91.60
2023-01-04T04:45:31.526Z,91.50
2023-01-04T04:48:55.770Z,91.40
2023-01-04T04:52:19.585Z,91.40
2023-01-04T04:55:43.496Z,91.10
2023-01-04T04:59:08.091Z,91.10
2023-01-04T05:02:41.922Z,91.00
2023-01-04T05:06:05.987Z,91.00
2023-01-04T05:09:29.671Z,91.00
2023-01-04T05:13:02.317Z,91.20
2023-01-04T05:16:26.060Z,91.10
2023-01-04T05:19:52.035Z,91.30
2023-01-04T05:23:16.870Z,91.50
2023-01-04T05:26:41.100Z,91.70
2023-01-04T05:30:24.897Z,91.60
2023-01-04T05:33:48.522Z,91.70
2023-01-04T05:37:14.263Z,91.80
2023-01-04T05:40:37.838Z,91.50
2023-01-04T05:44:01.652Z,91.80
2023-01-04T05:47:26.614Z,91.70
2023-01-04T05:50:52.268Z,91.70
2023-01-04T05:54:21.544Z,91.70
2023-01-04T05:57:46.690Z,91.70
2023-01-04T06:01:11.039Z,91.60
2023-01-04T06:04:34.771Z,91.40
2023-01-04T06:07:58.656Z,91.40
2023-01-04T06:11:27.772Z,91.40
2023-01-04T06:14:53.684Z,91.30
2023-01-04T06:18:17.241Z,91.20
2023-01-04T06:21:40.781Z,91.00
2023-01-04T06:25:05.076Z,90.90
2023-01-04T06:28:34.213Z,91.00
2023-01-04T06:32:01.763Z,91.00
2023-01-04T06:35:25.693Z,91.10
2023-01-04T06:38:50.041Z,91.00
2023-01-04T06:42:27.943Z,91.00
2023-01-04T06:45:53.492Z,91.40
2023-01-04T06:49:17.758Z,91.10
2023-01-04T06:52:42.953Z,91.20
2023-01-04T06:56:08.121Z,91.20
2023-01-04T06:59:32.821Z,91.20
2023-01-04T07:03:14.435Z,91.10
2023-01-04T07:06:39.815Z,91.10
2023-01-04T07:10:12.138Z,91.10
2023-01-04T07:13:51.313Z,91.20
2023-01-04T07:17:15.877Z,91.20
2023-01-04T07:20:43.840Z,91.30
2023-01-04T07:24:07.781Z,91.30
2023-01-04T07:27:31.790Z,91.40
2023-01-04T07:30:55.860Z,91.30
2023-01-04T07:34:21.501Z,91.20
2023-01-04T07:37:50.877Z,91.30
2023-01-04T07:41:17.866Z,91.30
2023-01-04T07:44:41.980Z,91.50
2023-01-04T07:48:06.279Z,91.60
2023-01-04T07:51:31.012Z,91.80
2023-01-04T07:54:56.221Z,91.90
2023-01-04T07:58:20.827Z,92.10
2023-01-04T08:01:46.190Z,92.10
2023-01-04T08:05:11.084Z,92.00
2023-01-04T08:08:34.873Z,92.10
2023-01-04T08:12:00.212Z,92.30
2023-01-04T08:15:23.802Z,92.60
2023-01-04T08:18:53.659Z,92.80
2023-01-04T08:22:25.996Z,93.10
2023-01-04T08:25:51.654Z,93.30
2023-01-04T08:29:16.645Z,93.50
2023-01-04T08:32:40.744Z,93.50
2023-01-04T08:36:12.252Z,93.40
2023-01-04T08:39:36.351Z,93.30
2023-01-04T08:42:59.958Z,93.10
2023-01-04T08:46:24.884Z,93.20
2023-01-04T08:49:48.556Z,93.00
2023-01-04T08:53:12.853Z,93.10
2023-01-04T08:56:36.421Z,93.00
2023-01-04T08:59:59.965Z,93.00
2023-01-04T09:03:25.021Z,92.90
2023-01-04T09:06:48.656Z,92.80
2023-01-04T09:10:12.584Z,92.70
2023-01-04T09:13:37.322Z,92.90
2023-01-04T09:17:01.062Z,92.80
2023-01-04T09:20:26.110Z,92.90
2023-01-04T09:23:49.960Z,92.90
2023-01-04T09:27:13.609Z,92.90
2023-01-04T09:30:37.175Z,92.90
2023-01-04T09:34:17.668Z,92.90
2023-01-04T09:37:43.416Z,92.70
2023-01-04T09:41:16.437Z,92.30
2023-01-04T09:48:32.531Z,92.20
2023-01-04T09:52:01.632Z,92.00
2023-01-04T09:55:37.059Z,92.00
2023-01-04T09:59:08.434Z,92.10
2023-01-04T10:02:41.420Z,92.70
2023-01-04T10:06:06.783Z,92.50
2023-01-04T10:09:30.965Z,92.70
2023-01-04T10:13:10.415Z,93.50
2023-01-04T10:24:56.047Z,93.80
2023-01-04T10:28:32.528Z,94.10
2023-01-04T10:32:01.523Z,94.10
2023-01-04T10:35:27.642Z,94.20
2023-01-04T10:38:58.107Z,94.30
2023-01-04T10:42:31.687Z,94.40
2023-01-04T10:46:05.228Z,94.50
2023-01-04T10:49:38.125Z,94.50
2023-01-04T10:53:05.635Z,94.60
2023-01-04T10:56:33.441Z,94.70
2023-01-04T11:00:03.597Z,94.30
2023-01-04T11:03:34.937Z,94.90
2023-01-04T11:07:03.687Z,94.50
2023-01-04T11:10:31.549Z,94.60
2023-01-04T11:13:55.289Z,94.60
2023-01-04T11:17:20.967Z,94.70
2023-01-04T11:20:46.649Z,94.70
2023-01-04T11:24:31.619Z,94.90
2023-01-04T11:28:00.012Z,94.80
2023-01-04T11:31:27.306Z,94.80
2023-01-04T11:34:53.191Z,94.90
2023-01-04T11:38:20.366Z,95.10
2023-01-04T11:42:02.618Z,95.20
2023-01-04T11:45:28.703Z,95.20
2023-01-04T11:48:53.086Z,95.30
2023-01-04T11:52:30.555Z,95.40
2023-01-04T11:56:13.633Z,95.40
2023-01-04T11:59:37.727Z,95.50
2023-01-04T12:03:14.440Z,95.40
2023-01-04T12:06:41.862Z,95.50
2023-01-04T12:10:21.477Z,95.40
2023-01-04T12:13:46.651Z,95.40
2023-01-04T12:17:15.118Z,95.40
2023-01-04T12:20:38.814Z,95.50
2023-01-04T12:24:07.744Z,95.50
2023-01-04T12:27:31.660Z,95.50
2023-01-04T12:30:57.159Z,95.50
2023-01-04T12:34:42.852Z,95.80
2023-01-04T12:38:09.682Z,95.50
2023-01-04T12:42:10.766Z,95.50
2023-01-04T12:45:34.333Z,95.50
2023-01-04T12:49:04.478Z,95.50
2023-01-04T12:53:10.080Z,95.50
2023-01-04T12:57:04.453Z,95.50
2023-01-04T13:01:20.471Z,95.70
2023-01-04T13:04:45.761Z,95.70
2023-01-04T13:08:11.855Z,95.60
2023-01-04T13:12:09.230Z,95.60
2023-01-04T13:15:52.819Z,95.60
2023-01-04T13:19:22.584Z,95.60
2023-01-04T13:22:54.758Z,95.70
2023-01-04T13:26:35.585Z,95.60
2023-01-04T13:29:59.335Z,95.60
2023-01-04T13:33:27.148Z,95.50
2023-01-04T13:36:56.603Z,95.40
2023-01-04T13:40:26.794Z,95.50
2023-01-04T13:44:03.519Z,95.60
2023-01-04T13:47:28.218Z,95.60
2023-01-04T13:51:02.639Z,95.50
2023-01-04T13:54:30.178Z,95.30
2023-01-04T13:58:00.089Z,95.30
2023-01-04T14:01:26.236Z,95.40
2023-01-04T14:04:51.584Z,95.40
2023-01-04T14:08:20.932Z,95.40
2023-01-04T14:12:09.662Z,95.40
2023-01-04T14:15:34.773Z,95.60
2023-01-04T14:18:59.066Z,95.40
2023-01-04T14:22:42.612Z,95.50
2023-01-04T14:26:06.186Z,95.30
2023-01-04T14:29:32.592Z,95.20
2023-01-04T14:33:01.200Z,95.00
2023-01-04T14:36:28.104Z,94.80
2023-01-04T14:39:51.746Z,95.00
2023-01-04T14:43:35.149Z,94.40
2023-01-04T14:47:00.724Z,94.30
2023-01-04T14:50:25.761Z,94.00
2023-01-04T14:53:49.519Z,93.90
2023-01-04T14:57:13.208Z,93.80
2023-01-04T15:00:36.908Z,93.60
2023-01-04T15:04:00.981Z,93.40
2023-01-04T15:07:35.527Z,93.20
2023-01-04T15:11:00.338Z,93.40
2023-01-04T15:14:24.214Z,92.90
2023-01-04T15:17:48.327Z,93.00
2023-01-04T15:21:12.742Z,92.80
2023-01-04T15:24:37.719Z,92.70
2023-01-04T15:28:01.533Z,92.50
2023-01-04T15:31:31.227Z,92.70
2023-01-04T15:34:58.835Z,92.60
2023-01-04T15:38:22.419Z,92.60
2023-01-04T15:42:04.787Z,92.50
2023-01-04T15:45:29.771Z,92.50
2023-01-04T15:48:53.400Z,92.40
2023-01-04T15:52:16.981Z,92.30
2023-01-04T15:55:40.559Z,92.30
2023-01-04T15:59:05.834Z,92.30
2023-01-04T16:02:29.563Z,92.40
2023-01-04T16:05:55.127Z,92.30
2023-01-04T16:09:21.345Z,92.30
2023-01-04T16:12:48.663Z,92.20
2023-01-04T16:16:19.100Z,92.20
2023-01-04T16:19:42.685Z,92.20
2023-01-04T16:23:06.243Z,92.10
2023-01-04T16:26:29.803Z,92.00
2023-01-04T16:29:53.480Z,91.90
2023-01-04T16:33:18.473Z,91.80
2023-01-04T16:36:42.083Z,91.70
2023-01-04T16:40:08.244Z,91.50
2023-01-04T16:43:32.680Z,91.40
2023-01-04T16:46:56.388Z,91.40
2023-01-04T16:50:21.420Z,91.20
2023-01-04T16:53:45.456Z,91.60
2023-01-04T16:57:09.020Z,91.40
2023-01-04T17:00:32.817Z,91.00
2023-01-04T17:03:58.061Z,91.00
2023-01-04T17:07:23.320Z,91.00
2023-01-04T17:10:46.887Z,90.80
2023-01-04T17:14:13.844Z,90.80
2023-01-04T17:17:37.406Z,90.80
2023-01-04T17:21:32.185Z,90.80
2023-01-04T17:24:47.673Z,90.50
2023-01-04T17:28:11.281Z,90.50
2023-01-04T17:31:36.726Z,90.50
2023-01-04T17:35:00.340Z,90.40
2023-01-04T17:38:24.007Z,90.40
2023-01-04T17:41:48.929Z,90.30
2023-01-04T17:45:12.638Z,90.30
2023-01-04T17:48:37.011Z,90.80
2023-01-04T17:52:01.136Z,90.60
2023-01-04T17:55:27.435Z,90.50
2023-01-04T17:58:52.940Z,90.60
2023-01-04T18:02:17.040Z,90.60
2023-01-04T18:05:51.632Z,90.70
2023-01-04T18:09:20.219Z,90.70
2023-01-04T18:12:46.032Z,90.70
2023-01-04T18:16:24.502Z,91.00
2023-01-04T18:19:48.764Z,90.40
2023-01-04T18:23:23.896Z,90.50
2023-01-04T18:30:32.886Z,90.20
2023-01-04T18:33:59.621Z,90.10
2023-01-04T18:37:23.197Z,90.10
2023-01-04T18:40:47.061Z,90.00
2023-01-04T18:44:32.278Z,89.80
2023-01-04T18:47:54.893Z,89.90
2023-01-04T18:51:20.641Z,89.90
2023-01-04T18:54:44.783Z,89.60
2023-01-04T18:58:08.478Z,89.60
2023-01-04T19:01:32.122Z,89.50
2023-01-04T19:04:55.724Z,89.70
2023-01-04T19:08:20.805Z,89.40
2023-01-04T19:11:45.568Z,90.00
2023-01-04T19:15:10.776Z,88.80
2023-01-04T19:18:34.388Z,88.20
2023-01-04T19:21:57.965Z,87.70
2023-01-04T19:25:28.013Z,87.50
2023-01-04T19:28:52.530Z,87.30
2023-01-04T19:32:19.292Z,87.10
2023-01-04T19:35:43.567Z,87.30
2023-01-04T19:39:09.304Z,86.80
2023-01-04T19:42:34.615Z,87.10
2023-01-04T19:45:58.268Z,86.80
2023-01-04T19:49:21.835Z,86.80
2023-01-04T19:52:45.574Z,86.80
2023-01-04T19:56:10.449Z,86.50
2023-01-04T19:59:35.367Z,87.00
2023-01-04T20:02:59.207Z,88.90
2023-01-04T20:06:23.011Z,88.40
2023-01-04T20:09:48.605Z,88.70
2023-01-04T20:13:12.252Z,89.00
2023-01-04T20:16:37.242Z,88.10
2023-01-04T20:20:00.831Z,88.20
2023-01-04T20:23:24.937Z,87.30
2023-01-04T20:26:48.535Z,87.00
2023-01-04T20:30:12.731Z,86.90
2023-01-04T20:33:37.856Z,86.50
2023-01-04T20:37:01.482Z,86.20
2023-01-04T20:40:25.214Z,86.80
2023-01-04T20:43:49.729Z,87.30
2023-01-04T20:47:13.233Z,87.80
2023-01-04T20:50:38.139Z,88.60
2023-01-04T20:54:01.754Z,89.40
2023-01-04T20:57:26.125Z,89.20
2023-01-04T21:00:49.813Z,89.10
2023-01-04T21:04:15.758Z,89.10
2023-01-04T21:07:40.787Z,89.30
2023-01-04T21:11:04.900Z,89.20
2023-01-04T21:14:31.297Z,89.60
2023-01-04T21:17:54.985Z,89.90
2023-01-04T21:21:20.168Z,89.90
2023-01-04T21:24:45.157Z,90.20
2023-01-04T21:28:09.249Z,90.30
2023-01-04T21:31:33.186Z,90.40
2023-01-04T21:34:57.187Z,90.40
2023-01-04T21:38:20.837Z,90.30
2023-01-04T21:41:48.164Z,90.10
2023-01-04T21:45:12.328Z,89.70
2023-01-04T21:48:35.936Z,89.80
2023-01-04T21:51:59.739Z,89.60
2023-01-04T21:55:23.364Z,89.00
2023-01-04T21:58:48.397Z,88.90
2023-01-04T22:02:15.705Z,88.50
2023-01-04T22:05:40.608Z,88.60
2023-01-04T22:09:04.888Z,88.70
2023-01-04T22:12:28.594Z,88.90
2023-01-04T22:15:53.665Z,89.00
2023-01-04T22:19:18.540Z,90.00
2023-01-04T22:22:42.122Z,90.10
2023-01-04T22:26:06.104Z,90.20
2023-01-04T22:29:32.143Z,90.30
2023-01-04T22:32:57.359Z,90.20
2023-01-04T22:36:23.307Z,90.30
2023-01-04T22:39:47.602Z,90.90
2023-01-04T22:43:11.387Z,91.20
2023-01-04T22:46:36.416Z,91.50
2023-01-04T22:50:01.420Z,91.70
2023-01-04T22:53:24.999Z,91.60
2023-01-04T22:56:48.675Z,91.70
2023-01-04T23:00:13.982Z,91.70
2023-01-04T23:03:40.104Z,91.60
2023-01-04T23:07:05.157Z,91.20
2023-01-04T23:10:28.762Z,91.20
2023-01-04T23:13:52.989Z,90.70
2023-01-04T23:17:17.529Z,90.70
2023-01-04T23:20:41.092Z,90.50
2023-01-04T23:24:07.066Z,90.20
2023-01-04T23:27:30.671Z,90.00
2023-01-04T23:30:54.193Z,90.00
2023-01-04T23:34:17.758Z,90.00
2023-01-04T23:37:41.317Z,89.60
2023-01-04T23:41:06.601Z,89.90
2023-01-04T23:44:32.094Z,89.20
2023-01-04T23:47:55.668Z,88.80
2023-01-04T23:51:19.250Z,88.40
2023-01-04T23:54:42.895Z,87.80
2023-01-04T23:58:07.785Z,87.60
